Main page
METAR-TAF:

Airports :

Dortmund, Germany

Dortmund Airport

latitude: 51-31N, longitude: 007-37E, elevation: 127 m

Current weather observation

The report was made 3 hours and 17 minutes ago, at 19:50 UTC
Wind 2 kt from variable directions
Temperature 9°C
Humidity 71%
Pressure 1027 hPa
Visibility 10 km or more
no clouds below 1500 m and no cumulonimbus

METAR: EDLW 011950Z VRB02KT CAVOK 09/04 Q1027

Time: 01:07 (23:07 UTC)

Forecast

The report was made 6 hours and 7 minutes ago, at 17:00 UTC
Forecast valid from 01 at 18 UTC to 02 at 18 UTC
Wind 6 kt from the North
Visibility 10 km or more
no clouds below 1500 m and no cumulonimbus
Becoming
from 01 at 19 UTC to 01 at 22 UTC
Wind 3 kt from variable directions

TAF: EDLW 011700Z 0118/0218 01006KT CAVOK BECMG 0119/0122 VRB03KT

METAR-TAF

Weather observations and forecasts of more than 4000 airports (METAR and TAF reports).

The available stations are represented by yellow and red dots on the map.

Hover mouse over dot to see the name of the station.

Then click to see weather observations and forecasts.

To change the map : click on the green buttons with a black cross to zoom in, on the green button with a dash to zoom out, or on the green arrows for adjacent maps.


METAR-TAF: